Brumadinho, Brazil
Current Conditions -  °F | °C
As of 7:19 PM on Thursday 27 Nov 2014 (Local Time) from SBPR Reporting Station
Broken Clouds Broken Clouds  
Wind Chill: 79°   Ceiling: 2500
Heat Index: 81°   Visibility: 6mi
Dew Point: 66°   Wind: 7mph
Humidity: 65%   Direction: 20°NNE
Pressure: 29.94"   Gusts: NA
Location:  20.14°S, 44.2°W
Report Text: SBPR 272119Z 02006KT 9999 BKN025 BKN080 26/19 Q1014
Loading
Personal Weather Stations






























Interactive Weather Map New forecast layout! Learn more

10-Day Weather Forecast

Advertisements
Track Severe Weather on mobile